createdAt,value
2023-04-08T00:01:23.231Z,96131.50
2023-04-08T00:03:50.440Z,96094.84
2023-04-08T00:06:17.608Z,96063.41
2023-04-08T00:08:44.640Z,96038.22
2023-04-08T00:11:11.736Z,95995.03
2023-04-08T00:13:38.831Z,95953.53
2023-04-08T00:16:06.167Z,95913.22
2023-04-08T00:18:38.174Z,95871.94
2023-04-08T00:21:05.288Z,95816.22
2023-04-08T00:23:32.336Z,95774.72
2023-04-08T00:25:59.432Z,95736.69
2023-04-08T00:28:26.465Z,95698.34
2023-04-08T00:30:54.592Z,95656.41
2023-04-08T00:33:21.744Z,95619.66
2023-04-08T00:35:49.767Z,95584.50
2023-04-08T00:38:17.067Z,95563.91
2023-04-08T00:40:44.238Z,95535.47
2023-04-08T00:43:11.556Z,95515.66
2023-04-08T00:45:38.911Z,95498.25
2023-04-08T00:48:06.032Z,95477.50
2023-04-08T00:50:33.285Z,95456.97
2023-04-08T00:53:00.378Z,95424.28
2023-04-08T00:55:27.449Z,95419.69
2023-04-08T00:57:55.066Z,95402.94
2023-04-08T01:00:24.360Z,95389.16
2023-04-08T01:03:05.732Z,95376.38
2023-04-08T01:05:38.947Z,95378.44
2023-04-08T01:08:07.188Z,95374.66
2023-04-08T01:10:37.747Z,95350.50
2023-04-08T01:13:08.389Z,95335.13
2023-04-08T01:15:37.102Z,95330.63
2023-04-08T01:18:06.919Z,95343.81
2023-04-08T01:20:34.669Z,95334.47
2023-04-08T01:23:01.902Z,95326.75
2023-04-08T01:25:36.687Z,95331.66
2023-04-08T01:28:06.192Z,95332.84
2023-04-08T01:30:34.269Z,95342.22
2023-04-08T01:33:02.313Z,95348.34
2023-04-08T01:35:30.799Z,95353.31
2023-04-08T01:37:59.146Z,95357.56
2023-04-08T01:40:26.520Z,95374.00
2023-04-08T01:42:56.048Z,95387.28
2023-04-08T01:45:24.006Z,95401.63
2023-04-08T01:47:52.229Z,95404.28
2023-04-08T01:50:19.722Z,95430.84
2023-04-08T01:52:49.079Z,95438.59
2023-04-08T01:55:16.873Z,95453.34
2023-04-08T01:57:47.811Z,95474.84
2023-04-08T02:00:16.423Z,95484.09
2023-04-08T02:02:53.457Z,95514.13
2023-04-08T02:05:20.724Z,95528.19
2023-04-08T02:07:48.214Z,95547.84
2023-04-08T02:10:15.836Z,95570.94
2023-04-08T02:12:44.222Z,95589.19
2023-04-08T02:15:12.291Z,95597.41
2023-04-08T02:17:59.692Z,95617.25
2023-04-08T02:20:26.784Z,95634.72
2023-04-08T02:22:54.122Z,95653.97
2023-04-08T02:25:24.320Z,95679.28
2023-04-08T02:27:53.047Z,95691.16
2023-04-08T02:30:21.679Z,95712.19
2023-04-08T02:32:49.051Z,95729.84
2023-04-08T02:35:16.513Z,95752.94
2023-04-08T02:37:44.730Z,95770.03
2023-04-08T02:40:27.936Z,95787.91
2023-04-08T02:42:56.550Z,95812.63
2023-04-08T02:45:27.348Z,95829.47
2023-04-08T02:47:54.482Z,95851.91
2023-04-08T02:50:21.633Z,95869.09
2023-04-08T02:52:48.715Z,95894.03
2023-04-08T02:55:16.753Z,95922.66
2023-04-08T02:57:43.804Z,95936.59
2023-04-08T03:00:11.295Z,95962.34
2023-04-08T03:02:38.633Z,95988.91
2023-04-08T03:05:06.065Z,96016.69
2023-04-08T03:07:33.585Z,96033.91
2023-04-08T03:10:00.800Z,96053.59
2023-04-08T03:12:28.109Z,96081.53
2023-04-08T03:14:55.401Z,96101.13
2023-04-08T03:17:22.520Z,96121.81
2023-04-08T03:19:49.643Z,96150.00
2023-04-08T03:22:16.778Z,96174.91
2023-04-08T03:24:43.868Z,96188.19
2023-04-08T03:27:12.655Z,96203.34
2023-04-08T03:29:40.184Z,96225.16
2023-04-08T03:32:07.483Z,96243.34
2023-04-08T03:34:35.471Z,96244.00
2023-04-08T03:37:02.932Z,96260.72
2023-04-08T03:39:30.036Z,96272.16
2023-04-08T03:41:57.223Z,96280.72
2023-04-08T03:44:24.460Z,96285.44
2023-04-08T03:46:51.524Z,96275.88
2023-04-08T03:49:18.674Z,96288.09
2023-04-08T03:51:45.811Z,96280.53
2023-04-08T03:54:12.860Z,96259.16
2023-04-08T03:56:39.949Z,96242.97
2023-04-08T03:59:07.048Z,96231.16
2023-04-08T04:01:34.167Z,96203.19
2023-04-08T04:04:01.861Z,96191.41
2023-04-08T04:06:29.097Z,96181.59
2023-04-08T04:08:56.266Z,96170.53
2023-04-08T04:11:23.324Z,96159.50
2023-04-08T04:13:50.366Z,96154.19
2023-04-08T04:16:17.474Z,96143.41
2023-04-08T04:18:44.712Z,96160.69
2023-04-08T04:21:11.865Z,96151.34
2023-04-08T04:23:38.944Z,96155.38
2023-04-08T04:26:10.120Z,96154.19
2023-04-08T04:28:37.533Z,96159.56
2023-04-08T04:31:05.006Z,96165.69
2023-04-08T04:33:32.204Z,96179.09
2023-04-08T04:35:59.400Z,96176.09
2023-04-08T04:38:27.055Z,96176.91
2023-04-08T04:40:54.151Z,96191.41
2023-04-08T04:43:21.308Z,96188.59
2023-04-08T04:45:48.492Z,96202.84
2023-04-08T04:48:15.687Z,96204.88
2023-04-08T04:50:42.852Z,96210.78
2023-04-08T04:53:09.975Z,96223.47
2023-04-08T04:55:39.145Z,96221.81
2023-04-08T04:58:06.661Z,96239.19
2023-04-08T05:00:33.801Z,96250.22
2023-04-08T05:03:01.225Z,96253.09
2023-04-08T05:05:28.646Z,96265.31
2023-04-08T05:07:55.856Z,96291.03
2023-04-08T05:10:23.064Z,96297.13
2023-04-08T05:12:50.374Z,96296.91
2023-04-08T05:15:17.524Z,96294.66
2023-04-08T05:17:44.699Z,96305.09
2023-04-08T05:20:11.804Z,96307.75
2023-04-08T05:22:39.060Z,96312.41
2023-04-08T05:25:06.484Z,96325.47
2023-04-08T05:27:33.666Z,96326.50
2023-04-08T05:30:00.881Z,96339.94
2023-04-08T05:32:29.578Z,96358.50
2023-04-08T05:34:56.838Z,96366.66
2023-04-08T05:37:23.901Z,96374.63
2023-04-08T05:39:51.310Z,96379.53
2023-04-08T05:42:18.361Z,96396.06
2023-04-08T05:44:45.688Z,96409.72
2023-04-08T05:47:13.133Z,96414.22
2023-04-08T05:49:40.381Z,96414.22
2023-04-08T05:52:07.539Z,96416.28
2023-04-08T05:54:34.601Z,96429.97
2023-04-08T05:57:01.825Z,96439.19
2023-04-08T05:59:28.879Z,96453.47
2023-04-08T06:01:57.035Z,96468.38
2023-04-08T06:04:24.623Z,96476.34
2023-04-08T06:06:51.761Z,96501.31
2023-04-08T06:09:18.902Z,96522.94
2023-04-08T06:11:47.346Z,96538.03
2023-04-08T06:14:14.482Z,96549.09
2023-04-08T06:16:41.672Z,96556.44
2023-04-08T06:19:08.910Z,96569.53
2023-04-08T06:21:36.347Z,96580.94
2023-04-08T06:24:03.519Z,96583.00
2023-04-08T06:26:30.557Z,96603.63
2023-04-08T06:28:57.651Z,96629.56
2023-04-08T06:31:24.841Z,96635.28
2023-04-08T06:33:52.444Z,96656.09
2023-04-08T06:36:19.541Z,96681.81
2023-04-08T06:38:46.628Z,96700.19
2023-04-08T06:41:13.657Z,96732.41
2023-04-08T06:43:40.686Z,96776.13
2023-04-08T06:46:18.976Z,96795.31
2023-04-08T06:48:48.817Z,96817.16
2023-04-08T06:51:15.979Z,96835.28
2023-04-08T06:53:43.109Z,96867.78
2023-04-08T06:56:10.211Z,96886.16
2023-04-08T06:58:37.343Z,96905.03
2023-04-08T07:01:05.011Z,96925.44
2023-04-08T07:03:32.498Z,96976.97
2023-04-08T07:05:59.794Z,97000.88
2023-04-08T07:08:27.326Z,97015.16
2023-04-08T07:10:54.447Z,97044.91
2023-04-08T07:13:21.554Z,97064.28
2023-04-08T07:15:48.648Z,97095.94
2023-04-08T07:18:15.726Z,97107.50
2023-04-08T07:20:42.813Z,97126.03
2023-04-08T07:23:09.897Z,97144.03
2023-04-08T07:25:37.050Z,97162.59
2023-04-08T07:28:04.197Z,97177.25
2023-04-08T07:30:31.350Z,97210.00
2023-04-08T07:33:00.707Z,97235.00
2023-04-08T07:35:28.492Z,97252.19
2023-04-08T07:37:55.751Z,97273.97
2023-04-08T07:40:22.912Z,97299.66
2023-04-08T07:42:50.283Z,97319.28
2023-04-08T07:45:17.471Z,97352.38
2023-04-08T07:47:44.639Z,97377.44
2023-04-08T07:50:11.954Z,97409.75
2023-04-08T07:52:39.050Z,97413.97
2023-04-08T07:55:06.510Z,97438.47
2023-04-08T07:57:33.830Z,97454.84
2023-04-08T08:00:01.115Z,97490.94
2023-04-08T08:02:28.448Z,97500.25
2023-04-08T08:04:55.937Z,97536.31
2023-04-08T08:07:23.012Z,97573.09
2023-04-08T08:09:50.279Z,97587.41
2023-04-08T08:12:17.587Z,97615.56
2023-04-08T08:14:44.707Z,97645.44
2023-04-08T08:17:12.773Z,97668.91
2023-04-08T08:19:40.012Z,97688.34
2023-04-08T08:22:07.142Z,97708.75
2023-04-08T08:24:34.333Z,97736.13
2023-04-08T08:27:02.798Z,97748.06
2023-04-08T08:29:29.917Z,97774.78
2023-04-08T08:31:56.955Z,97798.34
2023-04-08T08:34:23.998Z,97824.69
2023-04-08T08:36:51.346Z,97846.41
2023-04-08T08:39:18.367Z,97853.69
2023-04-08T08:41:46.038Z,97881.09
2023-04-08T08:44:13.287Z,97898.84
2023-04-08T08:46:44.351Z,97916.13
2023-04-08T08:49:12.407Z,97929.38
2023-04-08T08:51:40.442Z,97954.94
2023-04-08T08:54:08.494Z,97972.56
2023-04-08T08:56:35.781Z,97991.28
2023-04-08T08:59:02.863Z,98015.88
2023-04-08T09:01:30.076Z,98038.09
2023-04-08T09:04:11.491Z,98071.56
2023-04-08T09:06:38.878Z,98082.03
2023-04-08T09:09:10.606Z,98109.28
2023-04-08T09:11:39.884Z,98124.69
2023-04-08T09:14:22.977Z,98149.59
2023-04-08T09:16:51.087Z,98147.09
2023-04-08T09:19:18.838Z,98182.00
2023-04-08T09:21:46.062Z,98201.59
2023-04-08T09:24:30.339Z,98223.16
2023-04-08T09:26:57.679Z,98232.28
2023-04-08T09:29:26.965Z,98248.91
2023-04-08T09:31:56.702Z,98268.34
2023-04-08T09:34:24.411Z,98277.63
2023-04-08T09:36:52.136Z,98304.72
2023-04-08T09:39:19.559Z,98306.88
2023-04-08T09:41:48.913Z,98321.16
2023-04-08T09:44:20.572Z,98343.94
2023-04-08T09:46:47.814Z,98355.41
2023-04-08T09:49:27.264Z,98377.00
2023-04-08T09:52:03.452Z,98393.13
2023-04-08T09:54:49.205Z,98422.56
2023-04-08T09:57:17.428Z,98374.19
2023-04-08T09:59:48.993Z,98350.56
2023-04-08T10:02:19.956Z,98412.56
2023-04-08T10:04:48.967Z,98446.03
2023-04-08T10:07:16.134Z,98443.16
2023-04-08T10:09:43.712Z,98452.66
2023-04-08T10:12:10.765Z,98448.84
2023-04-08T10:14:39.068Z,98445.84
2023-04-08T10:17:27.481Z,98454.16
2023-04-08T10:19:54.708Z,98433.69
2023-04-08T10:22:34.224Z,98449.81
2023-04-08T10:25:17.053Z,98458.16
2023-04-08T10:27:44.834Z,98472.78
2023-04-08T10:30:33.368Z,98476.09
2023-04-08T10:33:00.887Z,98490.72
2023-04-08T10:35:31.966Z,98514.03
2023-04-08T10:37:59.314Z,98533.81
2023-04-08T10:40:26.740Z,98555.59
2023-04-08T10:42:57.551Z,98562.09
2023-04-08T10:45:24.911Z,98563.41
2023-04-08T10:47:52.292Z,98590.53
2023-04-08T10:50:20.393Z,98598.34
2023-04-08T10:52:50.936Z,98600.16
2023-04-08T10:55:25.256Z,98615.94
2023-04-08T10:57:52.656Z,98628.63
2023-04-08T11:00:20.508Z,98640.25
2023-04-08T11:02:47.973Z,98648.06
2023-04-08T11:05:15.192Z,98672.00
2023-04-08T11:07:42.451Z,98680.38
2023-04-08T11:10:09.887Z,98691.66
2023-04-08T11:12:37.442Z,98709.81
2023-04-08T11:15:04.964Z,98715.00
2023-04-08T11:17:34.291Z,98738.31
2023-04-08T11:20:06.228Z,98725.75
2023-04-08T11:22:36.394Z,98741.22
2023-04-08T11:25:03.711Z,98756.59
2023-04-08T11:27:30.998Z,98764.03
2023-04-08T11:29:59.320Z,98785.53
2023-04-08T11:32:26.852Z,98782.72
2023-04-08T11:34:53.898Z,98807.03
2023-04-08T11:37:21.232Z,98818.84
2023-04-08T11:39:48.338Z,98823.88
2023-04-08T11:42:31.538Z,98827.38
2023-04-08T11:44:58.918Z,98825.69
2023-04-08T11:47:31.988Z,98834.03
2023-04-08T11:49:59.521Z,98831.50
2023-04-08T11:52:45.600Z,98839.94
2023-04-08T11:55:13.381Z,98859.66
2023-04-08T11:57:40.525Z,98849.81
2023-04-08T12:00:07.914Z,98865.34
2023-04-08T12:02:38.074Z,98879.84
2023-04-08T12:05:05.507Z,98882.50
2023-04-08T12:07:32.670Z,98894.81
2023-04-08T12:09:59.859Z,98892.47
2023-04-08T12:12:26.952Z,98912.00
2023-04-08T12:14:54.690Z,98907.59
2023-04-08T12:17:21.844Z,98928.72
2023-04-08T12:19:49.020Z,98943.50
2023-04-08T12:22:16.748Z,98945.13
2023-04-08T12:24:44.300Z,98942.88
2023-04-08T12:27:11.527Z,98955.44
2023-04-08T12:29:39.273Z,98973.16
2023-04-08T12:32:06.415Z,98982.63
2023-04-08T12:34:33.504Z,98985.34
2023-04-08T12:37:00.876Z,99008.94
2023-04-08T12:39:28.400Z,99029.28
2023-04-08T12:41:55.477Z,99040.13
2023-04-08T12:44:22.667Z,99032.97
2023-04-08T12:46:49.920Z,99010.97
2023-04-08T12:49:17.291Z,99028.28
2023-04-08T12:51:44.381Z,99046.00
2023-04-08T12:54:11.452Z,99050.34
2023-04-08T12:56:39.326Z,99052.69
2023-04-08T12:59:06.414Z,99053.38
2023-04-08T13:01:33.582Z,99042.31
2023-04-08T13:04:00.786Z,99056.81
2023-04-08T13:06:28.178Z,99059.63
2023-04-08T13:08:55.489Z,99057.25
2023-04-08T13:11:22.547Z,99066.91
2023-04-08T13:13:49.657Z,99092.94
2023-04-08T13:16:16.950Z,99103.28
2023-04-08T13:18:44.059Z,99111.66
2023-04-08T13:21:11.303Z,99128.16
2023-04-08T13:23:38.907Z,99134.69
2023-04-08T13:26:06.753Z,99152.06
2023-04-08T13:28:40.743Z,99151.38
2023-04-08T13:31:17.109Z,99167.22
2023-04-08T13:33:44.202Z,99198.59
2023-04-08T13:36:11.314Z,99203.69
2023-04-08T13:38:38.384Z,99213.75
2023-04-08T13:41:05.586Z,99228.25
2023-04-08T13:43:32.724Z,99242.09
2023-04-08T13:45:59.867Z,99215.91
2023-04-08T13:48:26.995Z,99228.78
2023-04-08T13:50:54.051Z,99236.31
2023-04-08T13:53:21.240Z,99246.00
2023-04-08T13:55:48.438Z,99253.38
2023-04-08T13:58:23.266Z,99256.03
2023-04-08T14:00:51.936Z,99267.91
2023-04-08T14:03:20.250Z,99281.09
2023-04-08T14:05:47.635Z,99275.22
2023-04-08T14:08:14.687Z,99300.97
2023-04-08T14:10:42.328Z,99309.31
2023-04-08T14:13:09.545Z,99323.47
2023-04-08T14:15:36.685Z,99335.78
2023-04-08T14:18:03.940Z,99348.53
2023-04-08T14:20:31.290Z,99354.47
2023-04-08T14:22:58.360Z,99366.50
2023-04-08T14:25:25.835Z,99397.28
2023-04-08T14:27:58.580Z,99400.94
2023-04-08T14:30:27.384Z,99416.66
2023-04-08T14:32:54.742Z,99424.66
2023-04-08T14:35:21.975Z,99453.50
2023-04-08T14:37:49.102Z,99453.78
2023-04-08T14:40:16.474Z,99470.81
2023-04-08T14:42:45.471Z,99480.63
2023-04-08T14:45:13.272Z,99488.31
2023-04-08T14:47:40.756Z,99493.50
2023-04-08T14:50:08.077Z,99491.75
2023-04-08T14:52:35.299Z,99493.31
2023-04-08T14:57:47.329Z,99667.28
2023-04-08T15:00:14.669Z,99715.88
2023-04-08T15:02:41.823Z,99722.03
2023-04-08T15:05:09.230Z,99742.81
2023-04-08T15:07:36.755Z,99740.28
2023-04-08T15:10:03.917Z,99757.69
2023-04-08T15:12:32.870Z,99757.09
2023-04-08T15:15:00.069Z,99765.81
2023-04-08T15:17:27.204Z,99778.44
2023-04-08T15:19:54.549Z,99770.31
2023-04-08T15:22:21.739Z,99781.56
2023-04-08T15:24:48.878Z,99772.56
2023-04-08T15:27:16.062Z,99792.63
2023-04-08T15:29:43.189Z,99783.78
2023-04-08T15:32:10.285Z,99801.47
2023-04-08T15:34:37.402Z,99799.78
2023-04-08T15:37:04.487Z,99786.34
2023-04-08T15:39:31.732Z,99798.69
2023-04-08T15:41:58.767Z,99819.75
2023-04-08T15:44:25.854Z,99805.16
2023-04-08T15:46:53.302Z,99807.69
2023-04-08T15:49:21.404Z,99823.97
2023-04-08T15:51:50.750Z,99820.63
2023-04-08T15:54:17.847Z,99833.09
2023-04-08T15:56:46.579Z,99844.75
2023-04-08T15:59:14.053Z,99830.28
2023-04-08T16:01:41.990Z,99822.88
2023-04-08T16:04:11.292Z,99819.19
2023-04-08T16:06:38.475Z,99812.19
2023-04-08T16:09:06.505Z,99813.84
2023-04-08T16:11:34.053Z,99798.13
2023-04-08T16:14:01.799Z,99811.91
2023-04-08T16:16:29.644Z,99819.75
2023-04-08T16:18:56.791Z,99824.38
2023-04-08T16:21:24.176Z,99821.31
2023-04-08T16:23:51.628Z,99811.88
2023-04-08T16:26:19.088Z,99818.91
2023-04-08T16:28:46.172Z,99810.38
2023-04-08T16:31:13.253Z,99817.94
2023-04-08T16:33:40.445Z,99823.81
2023-04-08T16:36:07.627Z,99825.09
2023-04-08T16:38:35.501Z,99820.34
2023-04-08T16:41:06.061Z,99821.16
2023-04-08T16:43:33.150Z,99822.84
2023-04-08T16:46:00.270Z,99820.88
2023-04-08T16:48:27.782Z,99832.38
2023-04-08T16:50:54.915Z,99830.44
2023-04-08T16:53:22.004Z,99837.72
2023-04-08T16:55:49.123Z,99843.34
2023-04-08T16:58:16.146Z,99845.31
2023-04-08T17:00:43.226Z,99845.59
2023-04-08T17:03:10.790Z,99868.34
2023-04-08T17:05:38.699Z,99869.16
2023-04-08T17:08:06.111Z,99856.25
2023-04-08T17:10:33.480Z,99866.66
2023-04-08T17:13:00.664Z,99865.09
2023-04-08T17:15:27.820Z,99873.09
2023-04-08T17:17:55.019Z,99882.09
2023-04-08T17:20:22.157Z,99890.09
2023-04-08T17:22:49.337Z,99901.06
2023-04-08T17:25:16.493Z,99903.72
2023-04-08T17:27:43.618Z,99918.59
2023-04-08T17:30:11.588Z,99925.63
2023-04-08T17:32:38.776Z,99936.00
2023-04-08T17:35:06.287Z,99934.31
2023-04-08T17:37:33.509Z,99930.38
2023-04-08T17:40:00.686Z,99932.34
2023-04-08T17:42:27.851Z,99944.13
2023-04-08T17:44:56.049Z,99959.16
2023-04-08T17:47:23.303Z,99961.13
2023-04-08T17:49:53.932Z,99967.72
2023-04-08T17:52:21.025Z,100328.22
2023-04-08T17:54:48.210Z,100347.88
2023-04-08T17:57:15.306Z,100365.56
2023-04-08T17:59:42.372Z,100377.47
2023-04-08T18:02:09.506Z,100391.19
2023-04-08T18:04:36.665Z,100407.91
2023-04-08T18:07:05.351Z,100428.53
2023-04-08T18:09:32.515Z,100435.91
2023-04-08T18:11:59.670Z,100457.34
2023-04-08T18:14:28.399Z,100466.31
2023-04-08T18:16:55.581Z,100475.28
2023-04-08T18:19:24.699Z,100476.63
2023-04-08T18:21:51.843Z,100499.06
2023-04-08T18:24:20.162Z,100506.19
2023-04-08T18:26:54.293Z,100511.28
2023-04-08T18:29:24.999Z,100509.25
2023-04-08T18:31:52.084Z,100515.44
2023-04-08T18:34:20.777Z,100516.38
2023-04-08T18:36:47.848Z,100515.44
2023-04-08T18:39:14.934Z,100501.13
2023-04-08T18:41:42.788Z,100503.78
2023-04-08T18:44:09.987Z,100503.41
2023-04-08T18:46:37.209Z,100498.94
2023-04-08T18:49:04.428Z,100491.53
2023-04-08T18:51:31.493Z,100507.91
2023-04-08T18:53:59.218Z,100506.06
2023-04-08T18:56:26.672Z,100513.72
2023-04-08T18:58:54.736Z,100525.84
2023-04-08T19:01:22.239Z,100532.72
2023-04-08T19:03:49.566Z,100534.81
2023-04-08T19:06:17.428Z,100540.13
2023-04-08T19:08:46.522Z,100546.31
2023-04-08T19:11:15.643Z,100551.28
2023-04-08T19:13:42.754Z,100553.25
2023-04-08T19:16:10.918Z,100551.53
2023-04-08T19:18:38.009Z,100554.28
2023-04-08T19:21:05.121Z,100561.31
2023-04-08T19:23:32.413Z,100574.91
2023-04-08T19:25:59.559Z,100564.25
2023-04-08T19:28:26.695Z,100580.34
2023-04-08T19:30:53.849Z,100579.59
2023-04-08T19:33:21.128Z,100587.97
2023-04-08T19:35:48.519Z,100578.75
2023-04-08T19:38:15.915Z,100590.13
2023-04-08T19:40:43.014Z,100585.78
2023-04-08T19:43:10.255Z,100585.03
2023-04-08T19:45:37.420Z,100593.13
2023-04-08T19:48:04.548Z,100593.13
2023-04-08T19:50:31.943Z,100605.00
2023-04-08T19:52:59.377Z,100639.66
2023-04-08T19:55:26.662Z,100638.16
2023-04-08T19:57:54.320Z,100638.41
2023-04-08T20:00:21.811Z,100634.03
2023-04-08T20:02:49.226Z,100657.72
2023-04-08T20:05:17.351Z,100656.88
2023-04-08T20:07:44.403Z,100635.75
2023-04-08T20:10:12.395Z,100635.22
2023-04-08T20:12:40.910Z,100631.00
2023-04-08T20:15:13.543Z,100623.97
2023-04-08T20:17:47.257Z,100609.28
2023-04-08T20:20:14.451Z,100607.91
2023-04-08T20:22:41.878Z,100614.00
2023-04-08T20:25:08.929Z,100609.03
2023-04-08T20:27:36.640Z,100602.09
2023-04-08T20:30:03.903Z,100610.47
2023-04-08T20:32:31.007Z,100614.38
2023-04-08T20:34:59.740Z,100608.84
2023-04-08T20:37:28.587Z,100601.56
2023-04-08T20:39:55.679Z,100587.28
2023-04-08T20:42:22.831Z,100587.53
2023-04-08T20:44:49.908Z,100574.69
2023-04-08T20:47:16.999Z,100564.59
2023-04-08T20:49:44.153Z,100562.78
2023-04-08T20:52:11.248Z,100567.75
2023-04-08T20:54:38.349Z,100563.28
2023-04-08T20:57:05.434Z,100558.44
2023-04-08T20:59:33.378Z,100554.06
2023-04-08T21:02:01.266Z,100542.19
2023-04-08T21:04:28.487Z,100541.81
2023-04-08T21:06:55.608Z,100544.38
2023-04-08T21:09:22.643Z,100551.88
2023-04-08T21:11:49.741Z,100553.81
2023-04-08T21:14:16.788Z,100558.91
2023-04-08T21:16:43.972Z,100552.63
2023-04-08T21:19:11.155Z,100556.25
2023-04-08T21:21:38.322Z,100555.78
2023-04-08T21:24:07.104Z,100547.28
2023-04-08T21:26:34.197Z,100541.97
2023-04-08T21:29:01.381Z,100545.00
2023-04-08T21:31:30.216Z,100538.34
2023-04-08T21:33:57.375Z,100529.63
2023-04-08T21:36:24.570Z,100533.25
2023-04-08T21:38:51.829Z,100520.41
2023-04-08T21:41:19.131Z,100531.91
2023-04-08T21:43:46.898Z,100528.16
2023-04-08T21:46:14.044Z,100519.94
2023-04-08T21:48:41.134Z,100513.84
2023-04-08T21:51:08.510Z,100499.09
2023-04-08T21:53:35.640Z,100492.81
2023-04-08T21:56:02.679Z,100484.94
2023-04-08T21:58:29.743Z,100479.72
2023-04-08T22:00:56.898Z,100482.16
2023-04-08T22:03:24.084Z,100481.19
2023-04-08T22:05:51.458Z,100478.53
2023-04-08T22:08:18.496Z,100468.34
2023-04-08T22:10:45.710Z,100470.03
2023-04-08T22:13:14.289Z,100473.22
2023-04-08T22:15:41.329Z,100461.81
2023-04-08T22:18:08.539Z,100454.78
2023-04-08T22:20:36.573Z,100441.94
2023-04-08T22:23:03.818Z,100440.13
2023-04-08T22:25:30.851Z,100433.69
2023-04-08T22:27:57.942Z,100424.75
2023-04-08T22:30:25.009Z,100399.09
2023-04-08T22:32:52.272Z,100409.25
2023-04-08T22:35:19.547Z,100405.97
2023-04-08T22:37:46.709Z,100399.19
2023-04-08T22:40:13.849Z,100393.75
2023-04-08T22:42:40.926Z,100381.03
2023-04-08T22:45:08.124Z,100381.91
2023-04-08T22:47:35.360Z,100381.91
2023-04-08T22:50:02.431Z,100380.19
2023-04-08T22:52:29.543Z,100381.91
2023-04-08T22:54:56.621Z,100398.25
2023-04-08T22:57:23.653Z,100398.34
2023-04-08T22:59:50.733Z,100387.84
2023-04-08T23:02:18.103Z,100381.91
2023-04-08T23:04:45.831Z,100377.53
2023-04-08T23:07:12.944Z,100377.91
2023-04-08T23:09:40.350Z,100369.81
2023-04-08T23:12:07.527Z,100371.41
2023-04-08T23:14:34.750Z,100345.38
2023-04-08T23:17:03.077Z,100348.03
2023-04-08T23:19:32.229Z,100342.44
2023-04-08T23:21:59.305Z,100331.81
2023-04-08T23:24:26.558Z,100314.13
2023-04-08T23:26:53.687Z,100317.75
2023-04-08T23:29:20.719Z,100327.69
2023-04-08T23:31:47.867Z,100315.97
2023-04-08T23:34:15.005Z,100304.72
2023-04-08T23:36:42.096Z,100294.53
2023-04-08T23:39:09.210Z,100291.50
2023-04-08T23:41:36.414Z,100272.03
2023-04-08T23:44:03.549Z,100282.19
2023-04-08T23:46:30.811Z,100280.00
2023-04-08T23:48:57.946Z,100281.59
2023-04-08T23:51:25.054Z,100254.16
2023-04-08T23:53:52.209Z,100253.31
2023-04-08T23:56:19.616Z,100252.44
2023-04-08T23:58:46.780Z,100242.88
